Time;durP1;ratioP1;P1;durP2;ratioP2;P2;SDS_P1;SDS_P2;PMS_P1;PMS_P2;Temp;Humidity;BMP_temperature;BMP_pressure;BME280_temperature;BME280_humidity;BME280_pressure;Samples;Min_cycle;Max_cycle;Signal;HPM_P1;HPM_P2
2022/11/21 00:00:25;;;;;;;2.67;2.20;;;;;;;11.10;100.00;93194.94;5013775;28;20225;-65
2022/11/21 00:02:51;;;;;;;2.77;1.80;;;;;;;11.15;100.00;93185.84;5031779;28;20240;-64
2022/11/21 00:05:16;;;;;;;5.83;2.20;;;;;;;11.25;100.00;93195.81;5013623;28;20308;-59
2022/11/21 00:07:42;;;;;;;5.40;1.63;;;;;;;11.39;100.00;93193.31;5031731;28;20198;-63
2022/11/21 00:10:08;;;;;;;3.10;1.60;;;;;;;11.45;100.00;93185.00;5031564;28;20212;-59
2022/11/21 00:12:34;;;;;;;3.97;1.70;;;;;;;11.44;100.00;93170.69;5031275;28;20194;-64
2022/11/21 00:14:59;;;;;;;4.30;1.70;;;;;;;11.54;100.00;93171.25;5031332;28;20216;-60
2022/11/21 00:17:24;;;;;;;2.93;1.70;;;;;;;11.62;100.00;93171.19;5031594;28;20249;-64
2022/11/21 00:19:50;;;;;;;1.60;1.40;;;;;;;11.50;100.00;93149.66;5031323;28;20221;-64
2022/11/21 00:22:15;;;;;;;4.53;1.50;;;;;;;11.70;100.00;93166.06;5031495;28;20277;-64
2022/11/21 00:24:40;;;;;;;1.77;1.30;;;;;;;11.65;100.00;93157.34;5030906;28;20204;-64
2022/11/21 00:27:06;;;;;;;3.97;1.40;;;;;;;11.69;100.00;93150.97;5031143;28;20573;-60
2022/11/21 00:29:31;;;;;;;1.80;1.20;;;;;;;11.67;100.00;93128.22;5013416;28;20220;-64
2022/11/21 00:31:56;;;;;;;2.67;1.53;;;;;;;11.68;100.00;93104.34;5013025;28;20248;-60
2022/11/21 00:34:22;;;;;;;3.77;1.73;;;;;;;11.60;100.00;93090.88;5031176;28;20207;-62
2022/11/21 00:36:47;;;;;;;2.03;1.20;;;;;;;11.65;100.00;93083.53;5031079;28;20217;-65
2022/11/21 00:39:13;;;;;;;2.93;1.50;;;;;;;11.66;100.00;93098.63;5013400;28;20638;-64
2022/11/21 00:41:38;;;;;;;2.00;1.33;;;;;;;11.47;100.00;93093.25;5031112;28;20197;-63
2022/11/21 00:44:03;;;;;;;3.07;1.47;;;;;;;11.60;100.00;93090.88;5030965;28;20207;-65
2022/11/21 00:46:29;;;;;;;1.60;1.07;;;;;;;11.66;100.00;93123.28;5030966;28;20259;-60
2022/11/21 00:48:54;;;;;;;3.27;1.27;;;;;;;11.63;100.00;93144.00;5013224;28;20214;-63
2022/11/21 00:51:19;;;;;;;1.57;1.40;;;;;;;11.30;100.00;93135.03;5030889;28;20596;-63
2022/11/21 00:53:45;;;;;;;1.87;1.07;;;;;;;11.42;100.00;93093.75;5030730;28;20272;-59
2022/11/21 00:56:10;;;;;;;3.73;1.40;;;;;;;11.63;100.00;93109.16;5030827;28;20240;-63
2022/11/21 00:58:36;;;;;;;1.20;1.10;;;;;;;11.68;100.00;93106.09;5030814;28;20781;-62
2022/11/21 01:01:04;;;;;;;1.97;1.33;;;;;;;11.59;100.00;93100.28;5034152;28;20197;-64
2022/11/21 01:03:31;;;;;;;4.23;1.40;;;;;;;11.29;100.00;93090.22;5033930;28;20190;-63
2022/11/21 01:06:05;;;;;;;2.27;1.57;;;;;;;11.10;100.00;93106.75;5058912;23;20253;-63
2022/11/21 01:08:31;;;;;;;2.40;1.33;;;;;;;11.21;100.00;93105.56;5054281;28;20217;-65
2022/11/21 01:11:00;;;;;;;3.67;2.03;;;;;;;11.39;100.00;93101.72;5036604;28;20277;-64
2022/11/21 01:13:25;;;;;;;2.30;1.13;;;;;;;11.61;100.00;93103.44;5053946;28;20256;-59
2022/11/21 01:15:51;;;;;;;4.90;0.93;;;;;;;11.55;100.00;93111.75;5054280;28;20288;-63
2022/11/21 01:18:16;;;;;;;3.20;1.60;;;;;;;11.51;100.00;93097.78;5054071;28;20209;-62
2022/11/21 01:20:42;;;;;;;2.80;1.30;;;;;;;11.54;100.00;93097.47;5054004;28;20296;-62
2022/11/21 01:23:07;;;;;;;2.20;1.07;;;;;;;11.35;100.00;93087.75;5053724;28;20620;-63
2022/11/21 01:25:34;;;;;;;1.10;0.97;;;;;;;11.11;100.00;93090.50;5053862;28;20232;-63
2022/11/21 01:28:00;;;;;;;3.37;1.10;;;;;;;11.27;100.00;93092.94;5053811;28;20671;-63
2022/11/21 01:30:25;;;;;;;1.17;0.73;;;;;;;11.15;100.00;93068.88;5053848;28;20760;-64
2022/11/21 01:32:51;;;;;;;1.97;1.20;;;;;;;11.49;100.00;93071.72;5053911;28;20182;-64
2022/11/21 01:35:17;;;;;;;2.13;0.90;;;;;;;11.49;100.00;93070.97;5054061;28;20698;-62
2022/11/21 01:37:46;;;;;;;2.20;0.90;;;;;;;11.34;100.00;93059.97;5035917;28;20217;-64
2022/11/21 01:40:12;;;;;;;1.87;1.07;;;;;;;11.53;100.00;93072.97;5053928;28;20251;-60
2022/11/21 01:43:12;;;;;;;3.17;1.07;;;;;;;11.53;100.00;93087.47;5053583;28;20264;-62
2022/11/21 01:45:59;;;;;;;3.60;2.10;;;;;;;11.21;100.00;93064.88;5053282;28;20613;-63
2022/11/21 01:48:30;;;;;;;3.60;2.20;;;;;;;11.18;100.00;93076.16;5053451;28;20197;-63
2022/11/21 01:51:00;;;;;;;4.90;2.40;;;;;;;11.20;100.00;93076.00;5035821;28;20271;-65
2022/11/21 01:53:25;;;;;;;3.13;2.43;;;;;;;11.32;100.00;93075.41;5035764;28;20200;-64
2022/11/21 01:55:52;;;;;;;4.00;2.43;;;;;;;11.23;100.00;93068.78;5053871;28;20598;-59
2022/11/21 01:58:18;;;;;;;6.37;2.90;;;;;;;11.53;100.00;93072.97;5053188;28;20216;-64
2022/11/21 02:00:45;;;;;;;3.23;2.60;;;;;;;11.57;100.00;93076.75;5053688;28;20223;-63
2022/11/21 02:03:15;;;;;;;3.33;1.90;;;;;;;11.61;100.00;93090.72;5053469;28;20189;-65
2022/11/21 02:05:40;;;;;;;3.97;1.60;;;;;;;11.51;100.00;93097.78;5053287;28;20225;-65
2022/11/21 02:08:13;;;;;;;3.80;1.90;;;;;;;11.60;100.00;93099.31;5053312;28;20197;-62
2022/11/21 02:10:48;;;;;;;5.77;2.13;;;;;;;11.59;100.00;93058.78;5052759;28;20225;-63
2022/11/21 02:13:13;;;;;;;3.43;1.80;;;;;;;11.83;100.00;93086.53;5053040;28;20196;-64
2022/11/21 02:15:39;;;;;;;4.37;2.50;;;;;;;11.66;100.00;93098.63;5052827;28;20217;-59
2022/11/21 02:18:13;;;;;;;3.77;2.30;;;;;;;11.46;100.00;93104.38;5035082;28;20216;-59
2022/11/21 02:20:42;;;;;;;9.87;4.10;;;;;;;11.51;100.00;93120.69;5053392;28;20208;-59
2022/11/21 02:23:17;;;;;;;6.03;4.90;;;;;;;11.62;100.00;93111.84;5053156;28;20567;-65
2022/11/21 02:25:43;;;;;;;9.47;7.07;;;;;;;11.42;100.00;93064.97;5052957;28;20209;-64
2022/11/21 02:28:14;;;;;;;9.60;8.60;;;;;;;11.60;100.00;93088.34;5053028;28;20215;-59
2022/11/21 02:30:41;;;;;;;8.30;6.20;;;;;;;11.67;100.00;93124.88;5052807;28;20225;-64
2022/11/21 02:33:07;;;;;;;2.30;2.10;;;;;;;11.55;100.00;93121.16;5035046;28;20586;-64
2022/11/21 02:35:33;;;;;;;4.63;2.83;;;;;;;11.73;100.00;93098.75;5034951;28;20206;-65
2022/11/21 02:38:02;;;;;;;4.93;2.40;;;;;;;11.78;100.00;93112.53;5034792;28;20213;-64
2022/11/21 02:40:32;;;;;;;2.93;1.83;;;;;;;11.71;100.00;93096.38;5053208;28;20581;-64
2022/11/21 02:43:13;;;;;;;2.13;1.83;;;;;;;11.86;100.00;93055.63;5053290;28;20197;-63
2022/11/21 02:45:42;;;;;;;5.10;1.87;;;;;;;11.82;100.00;93057.75;5052987;28;20268;-62
2022/11/21 02:48:07;;;;;;;2.77;1.00;;;;;;;11.78;100.00;93063.34;5052811;28;20220;-62
2022/11/21 02:50:38;;;;;;;2.87;1.10;;;;;;;11.44;100.00;93057.97;5052758;28;20237;-59
2022/11/21 02:53:05;;;;;;;3.77;1.10;;;;;;;11.45;100.00;93042.50;5052602;28;20194;-64
2022/11/21 02:55:31;;;;;;;4.00;1.50;;;;;;;11.70;100.00;93031.16;5052512;28;20598;-63
2022/11/21 02:57:56;;;;;;;2.57;1.20;;;;;;;11.53;100.00;93011.88;5052236;28;20223;-63
2022/11/21 03:00:23;;;;;;;2.50;1.00;;;;;;;11.80;100.00;93018.94;5052274;28;20227;-59
2022/11/21 03:02:49;;;;;;;2.83;1.63;;;;;;;11.78;100.00;93020.88;5034452;28;20185;-63
2022/11/21 03:05:17;;;;;;;3.60;1.40;;;;;;;11.73;100.00;93025.72;5052534;28;20271;-64
2022/11/21 03:07:43;;;;;;;2.00;1.50;;;;;;;11.79;100.00;93016.56;5034337;28;20193;-60
2022/11/21 03:10:09;;;;;;;3.93;1.73;;;;;;;11.87;100.00;93049.56;5052505;28;20260;-61
2022/11/21 03:12:36;;;;;;;2.70;1.60;;;;;;;11.74;100.00;93045.09;5052133;28;20225;-59
2022/11/21 03:15:03;;;;;;;2.13;1.60;;;;;;;11.82;100.00;93031.47;5052364;28;20209;-59
2022/11/21 03:17:28;;;;;;;3.10;1.40;;;;;;;11.79;100.00;93040.28;5034279;28;20652;-64
2022/11/21 03:19:54;;;;;;;2.73;1.60;;;;;;;11.63;100.00;93025.16;5051843;28;20245;-59
2022/11/21 03:22:19;;;;;;;1.93;1.50;;;;;;;11.49;100.00;93015.75;5017286;28;20228;-60
2022/11/21 03:24:45;;;;;;;5.77;1.60;;;;;;;11.78;100.00;93048.88;5051504;28;20213;-64
2022/11/21 03:27:10;;;;;;;2.83;1.90;;;;;;;11.70;100.00;93061.69;5052061;28;20193;-60
2022/11/21 03:29:35;;;;;;;4.00;1.30;;;;;;;11.62;100.00;93045.69;5051999;28;20760;-63
2022/11/21 03:32:01;;;;;;;3.60;1.13;;;;;;;11.74;100.00;93044.31;5051965;28;20225;-63
2022/11/21 03:34:26;;;;;;;2.87;1.37;;;;;;;11.65;100.00;93025.78;5051873;28;20220;-59
2022/11/21 03:36:52;;;;;;;2.50;1.27;;;;;;;11.85;100.00;93020.97;5033928;28;20209;-63
2022/11/21 03:39:17;;;;;;;8.00;2.43;;;;;;;11.86;100.00;93032.72;5033640;28;20254;-59
2022/11/21 03:41:43;;;;;;;2.27;1.40;;;;;;;11.77;100.00;93052.41;5033730;28;20273;-64
2022/11/21 03:44:10;;;;;;;2.70;1.50;;;;;;;11.83;100.00;93033.06;5051451;28;20663;-59
2022/11/21 03:46:38;;;;;;;3.80;1.50;;;;;;;12.19;100.00;93039.00;5051689;28;20189;-64
2022/11/21 03:49:05;;;;;;;3.43;1.50;;;;;;;12.21;100.00;93028.63;5051575;28;20213;-64
2022/11/21 03:51:31;;;;;;;1.20;1.10;;;;;;;11.99;100.00;93022.69;5051490;28;20225;-59
2022/11/21 03:53:56;;;;;;;3.47;1.70;;;;;;;11.82;100.00;93011.91;5033477;28;20730;-63
2022/11/21 03:56:22;;;;;;;3.03;1.67;;;;;;;11.82;100.00;93006.81;5051592;28;20189;-61
2022/11/21 03:58:48;;;;;;;3.87;1.27;;;;;;;11.89;100.00;93018.84;5051220;28;20288;-59
2022/11/21 04:01:14;;;;;;;3.67;1.47;;;;;;;11.94;100.00;93024.22;5051172;28;20545;-59
2022/11/21 04:03:41;;;;;;;2.63;1.40;;;;;;;11.94;100.00;93029.31;5051123;28;20190;-62
2022/11/21 04:06:08;;;;;;;4.67;1.77;;;;;;;11.85;100.00;92999.78;5033271;28;20211;-64
2022/11/21 04:08:33;;;;;;;4.90;1.80;;;;;;;12.04;100.00;93020.38;5051185;28;20194;-63
2022/11/21 04:10:59;;;;;;;2.60;1.70;;;;;;;11.96;100.00;93019.72;5051281;28;20223;-64
2022/11/21 04:13:24;;;;;;;5.17;1.90;;;;;;;11.75;100.00;92977.97;5058508;22;20248;-63
2022/11/21 04:15:50;;;;;;;5.83;2.40;;;;;;;11.75;100.00;93003.44;5051066;28;20655;-64
2022/11/21 04:18:15;;;;;;;6.43;1.67;;;;;;;11.78;100.00;92982.69;5050974;28;20224;-62
2022/11/21 04:20:41;;;;;;;2.87;2.00;;;;;;;11.83;100.00;92992.34;5051128;28;20648;-63
2022/11/21 04:23:07;;;;;;;3.10;1.90;;;;;;;11.80;100.00;93013.84;5033068;28;20194;-63
2022/11/21 04:25:32;;;;;;;4.60;1.50;;;;;;;11.89;100.00;93042.56;5050842;28;20205;-63
2022/11/21 04:27:59;;;;;;;9.03;1.70;;;;;;;11.99;100.00;93037.19;5051109;28;20197;-58
2022/11/21 04:30:25;;;;;;;4.23;1.60;;;;;;;12.08;100.00;93047.06;5050766;28;20581;-59
2022/11/21 04:32:52;;;;;;;2.50;1.90;;;;;;;12.00;100.00;93016.63;5050942;28;20231;-58
2022/11/21 04:35:17;;;;;;;3.53;2.10;;;;;;;11.99;100.00;93024.44;5032608;28;20213;-64
2022/11/21 04:37:43;;;;;;;3.23;1.90;;;;;;;11.87;100.00;93008.84;5050807;28;20354;-62
2022/11/21 04:40:09;;;;;;;3.67;1.77;;;;;;;12.00;100.00;93006.44;5050619;28;20695;-59
2022/11/21 04:42:34;;;;;;;4.17;1.90;;;;;;;12.09;100.00;92971.47;5050829;28;20204;-63
2022/11/21 04:45:00;;;;;;;5.20;1.77;;;;;;;12.25;100.00;93027.28;5032623;28;20217;-64
2022/11/21 04:47:25;;;;;;;3.67;1.73;;;;;;;12.33;100.00;93039.91;5032682;28;20266;-63
2022/11/21 04:49:50;;;;;;;5.50;2.10;;;;;;;12.31;100.00;93091.06;5050530;28;20216;-64
2022/11/21 04:52:16;;;;;;;4.93;2.07;;;;;;;12.20;100.00;93035.47;5051113;28;20284;-64
2022/11/21 04:54:41;;;;;;;5.70;1.93;;;;;;;12.24;100.00;93056.28;5050634;28;20216;-60
2022/11/21 04:57:07;;;;;;;4.77;2.30;;;;;;;12.30;100.00;93068.31;5050641;28;20216;-63
2022/11/21 04:59:33;;;;;;;3.27;1.70;;;;;;;12.10;100.00;93044.38;5050464;28;20212;-62
2022/11/21 05:01:58;;;;;;;2.57;1.80;;;;;;;11.98;100.00;93063.63;5050395;28;20190;-62
2022/11/21 05:04:24;;;;;;;6.03;2.07;;;;;;;11.59;100.00;93049.38;5050379;28;20213;-64
2022/11/21 05:06:49;;;;;;;6.33;2.07;;;;;;;11.39;100.00;93034.81;5032442;28;20213;-64
2022/11/21 05:09:15;;;;;;;2.63;1.07;;;;;;;11.43;100.00;93041.91;5050528;28;20251;-62
2022/11/21 05:14:25;;;;;;;5.13;1.60;;;;;;;11.42;100.00;93058.13;5050722;28;20354;-60
2022/11/21 05:16:52;;;;;;;5.27;1.67;;;;;;;11.34;100.00;93059.97;5050293;28;20185;-63
2022/11/21 05:19:18;;;;;;;1.90;1.57;;;;;;;11.09;100.00;93054.31;5050631;28;20209;-66
2022/11/21 05:21:43;;;;;;;2.67;1.20;;;;;;;11.12;100.00;93058.25;5050463;28;20635;-64
2022/11/21 05:24:08;;;;;;;2.60;1.37;;;;;;;11.30;100.00;93079.88;5050045;28;20220;-64
2022/11/21 05:26:34;;;;;;;2.20;1.10;;;;;;;11.47;100.00;93118.69;5050202;28;20196;-60
2022/11/21 05:28:59;;;;;;;3.20;1.40;;;;;;;11.29;100.00;93075.75;5050635;28;20218;-64
2022/11/21 05:31:25;;;;;;;3.33;1.80;;;;;;;11.08;100.00;93078.16;5049986;28;20185;-63
2022/11/21 05:33:50;;;;;;;2.40;1.87;;;;;;;10.89;100.00;93063.38;5032354;28;20613;-61
2022/11/21 05:36:16;;;;;;;3.43;2.90;;;;;;;10.88;100.00;93075.31;5049966;28;20189;-63
2022/11/21 05:38:41;;;;;;;2.23;1.60;;;;;;;11.17;100.00;93096.69;5050459;28;20600;-64
2022/11/21 05:41:07;;;;;;;2.57;1.40;;;;;;;11.25;100.00;93122.81;5050074;28;20190;-64
2022/11/21 05:43:45;;;;;;;6.13;1.57;;;;;;;11.42;100.00;93147.19;5032235;28;20204;-64
2022/11/21 05:46:22;;;;;;;3.20;1.73;;;;;;;11.02;100.00;93119.53;5050507;28;20187;-64
2022/11/21 05:48:49;;;;;;;8.23;4.83;;;;;;;11.28;100.00;93114.88;5053187;28;20205;-64
2022/11/21 05:51:15;;;;;;;5.17;2.90;;;;;;;12.91;100.00;93116.19;5053478;28;20548;-66
2022/11/21 05:53:41;;;;;;;3.47;1.70;;;;;;;12.83;100.00;93108.66;5053730;28;20198;-63
2022/11/21 05:56:12;;;;;;;3.07;1.63;;;;;;;12.34;100.00;93128.13;5035682;28;20197;-62
2022/11/21 05:58:38;;;;;;;2.17;1.33;;;;;;;12.28;100.00;93146.69;5053697;28;20328;-63
2022/11/21 06:01:05;;;;;;;3.90;1.50;;;;;;;11.76;100.00;93175.53;5035532;28;20703;-62
2022/11/21 06:03:34;;;;;;;4.90;1.20;;;;;;;12.00;100.00;93214.50;5053438;28;20305;-64
2022/11/21 06:06:04;;;;;;;3.63;1.27;;;;;;;11.80;100.00;93237.88;5053151;28;20721;-62
2022/11/21 06:08:38;;;;;;;2.10;1.17;;;;;;;11.73;100.00;93238.75;5053233;28;20197;-62
2022/11/21 06:11:05;;;;;;;2.97;1.20;;;;;;;11.48;100.00;93217.75;5053209;28;20262;-61
2022/11/21 06:13:32;;;;;;;1.90;1.10;;;;;;;11.25;100.00;93186.41;5053196;28;20666;-63
2022/11/21 06:16:04;;;;;;;3.90;1.47;;;;;;;11.27;100.00;93201.53;5053184;28;20212;-62
2022/11/21 06:18:36;;;;;;;2.10;0.90;;;;;;;10.77;100.00;93258.69;5035163;28;20267;-62
2022/11/21 06:21:12;;;;;;;2.67;1.07;;;;;;;10.32;100.00;93214.56;5052969;28;20213;-62
2022/11/21 06:23:38;;;;;;;3.00;1.83;;;;;;;10.12;100.00;93214.91;5035207;28;20196;-62
2022/11/21 06:26:06;;;;;;;4.23;1.07;;;;;;;10.21;100.00;93222.50;5052786;28;20205;-62
2022/11/21 06:28:33;;;;;;;1.77;1.07;;;;;;;9.85;100.00;93201.78;5052540;28;20672;-62
2022/11/21 06:31:21;;;;;;;1.27;0.80;;;;;;;9.47;100.00;93189.78;5052696;28;20205;-62
2022/11/21 06:33:46;;;;;;;2.03;0.90;;;;;;;9.36;100.00;93185.81;5052881;28;20656;-65
2022/11/21 06:36:14;;;;;;;0.60;0.60;;;;;;;9.45;100.00;93217.03;5052791;28;20184;-66
2022/11/21 06:38:41;;;;;;;1.13;0.67;;;;;;;9.38;100.00;93233.81;5052874;28;20249;-66
2022/11/21 06:41:21;;;;;;;2.93;0.90;;;;;;;9.03;100.00;93265.31;5052610;28;20181;-61
2022/11/21 06:43:47;;;;;;;1.00;0.67;;;;;;;8.88;100.00;93254.16;5053097;28;20600;-62
2022/11/21 06:46:13;;;;;;;1.57;1.23;;;;;;;8.88;100.00;93221.22;5052638;28;20193;-63
2022/11/21 06:48:39;;;;;;;1.10;0.57;;;;;;;8.84;100.00;93237.69;5052781;28;20656;-62
2022/11/21 06:51:08;;;;;;;2.60;0.77;;;;;;;8.73;100.00;93260.75;5052439;28;20189;-61
2022/11/21 06:53:34;;;;;;;1.00;0.70;;;;;;;8.70;100.00;93261.88;5052441;28;20644;-62
2022/11/21 06:56:03;;;;;;;1.80;0.57;;;;;;;9.02;100.00;93273.84;5034473;28;20202;-59
2022/11/21 06:58:29;;;;;;;0.67;0.67;;;;;;;8.50;100.00;93297.72;5052106;28;20217;-59
2022/11/21 07:00:55;;;;;;;0.93;0.60;;;;;;;8.34;100.00;93313.63;5034533;28;20352;-63
2022/11/21 07:03:21;;;;;;;2.13;0.90;;;;;;;8.40;100.00;93341.66;5052706;28;20335;-61
2022/11/21 07:05:47;;;;;;;2.67;0.60;;;;;;;7.93;100.00;93311.72;5052241;28;20216;-61
2022/11/21 07:08:13;;;;;;;0.60;0.60;;;;;;;7.59;100.00;93325.03;5052722;28;20185;-63
2022/11/21 07:10:39;;;;;;;1.27;0.63;;;;;;;7.58;100.00;93317.59;5052351;28;20588;-59
2022/11/21 07:13:22;;;;;;;0.40;0.40;;;;;;;7.31;100.00;93337.91;5052369;28;20276;-62
2022/11/21 07:15:51;;;;;;;0.70;0.53;;;;;;;7.32;100.00;93317.53;5052154;28;20215;-57
2022/11/21 07:18:17;;;;;;;1.23;0.50;;;;;;;6.96;100.00;93336.09;5052214;28;20273;-63
2022/11/21 07:20:43;;;;;;;1.00;0.67;;;;;;;6.71;100.00;93337.53;5052051;28;20687;-63
2022/11/21 07:23:09;;;;;;;0.87;0.80;;;;;;;6.79;100.00;93349.47;5052273;28;20188;-65
2022/11/21 07:25:35;;;;;;;2.83;0.67;;;;;;;6.74;100.00;93347.38;5052039;28;20228;-62
2022/11/21 07:28:01;;;;;;;1.33;0.90;;;;;;;6.63;100.00;93360.16;5034396;28;20212;-61
2022/11/21 07:30:28;;;;;;;3.63;0.90;;;;;;;6.54;100.00;93370.28;5034021;28;20216;-62
2022/11/21 07:32:57;;;;;;;2.33;0.97;;;;;;;6.33;100.00;93370.47;5052259;28;20268;-62
2022/11/21 07:35:23;;;;;;;0.80;0.80;;;;;;;6.36;100.00;93367.66;5052017;28;20223;-58
2022/11/21 07:37:49;;;;;;;1.10;0.87;;;;;;;6.26;100.00;93364.38;5051827;28;20206;-62
2022/11/21 07:40:14;;;;;;;1.30;1.00;;;;;;;6.22;100.00;93372.38;5034135;28;20216;-62
2022/11/21 07:42:39;;;;;;;1.27;0.93;;;;;;;6.14;100.00;93394.94;5051679;28;20215;-63
2022/11/21 07:45:05;;;;;;;1.87;1.00;;;;;;;6.07;100.00;93403.97;5051941;28;20223;-63
2022/11/21 07:47:31;;;;;;;1.10;0.77;;;;;;;5.94;100.00;93410.09;5051513;28;20209;-62
2022/11/21 07:49:56;;;;;;;0.70;0.70;;;;;;;5.91;100.00;93419.66;5051664;28;20284;-63
2022/11/21 07:52:22;;;;;;;1.37;1.03;;;;;;;6.10;100.00;93409.53;5051826;28;20615;-63
2022/11/21 07:54:47;;;;;;;1.57;1.13;;;;;;;6.13;100.00;93416.84;5051524;28;20212;-59
2022/11/21 07:57:12;;;;;;;2.03;1.00;;;;;;;6.22;100.00;93426.13;5051417;28;20739;-64
2022/11/21 07:59:38;;;;;;;0.83;0.83;;;;;;;6.13;100.00;93447.13;5051616;28;20216;-65
2022/11/21 08:02:03;;;;;;;1.97;1.33;;;;;;;6.08;100.00;93451.75;5051426;28;20199;-61
2022/11/21 08:04:29;;;;;;;1.17;0.60;;;;;;;5.97;100.00;93461.97;5051396;28;20223;-63
2022/11/21 08:06:55;;;;;;;1.43;0.80;;;;;;;6.05;100.00;93471.41;5051315;28;20635;-64
2022/11/21 08:09:20;;;;;;;1.03;0.70;;;;;;;5.92;100.00;93462.38;5050672;28;20296;-59
2022/11/21 08:11:45;;;;;;;1.33;0.70;;;;;;;5.89;100.00;93475.25;5051496;28;20234;-62
2022/11/21 08:14:11;;;;;;;0.97;0.80;;;;;;;5.81;100.00;93476.81;5051527;28;20216;-61
2022/11/21 08:16:36;;;;;;;0.60;0.60;;;;;;;5.88;100.00;93467.81;5033466;28;20185;-64
2022/11/21 08:19:02;;;;;;;0.70;0.70;;;;;;;5.89;100.00;93487.06;5051481;28;20243;-63
2022/11/21 08:21:27;;;;;;;0.73;0.70;;;;;;;5.91;100.00;93491.06;5033268;28;20657;-62
2022/11/21 08:23:54;;;;;;;1.40;1.10;;;;;;;5.98;100.00;93477.91;5051425;28;20204;-62
2022/11/21 08:26:20;;;;;;;2.17;1.20;;;;;;;6.02;100.00;93471.69;5051103;28;20193;-62
2022/11/21 08:28:45;;;;;;;0.77;0.77;;;;;;;5.99;100.00;93475.25;5050868;28;20201;-63
2022/11/21 08:31:11;;;;;;;2.67;1.20;;;;;;;5.93;100.00;93475.78;5051151;28;20573;-62
2022/11/21 08:33:37;;;;;;;1.33;0.77;;;;;;;5.85;100.00;93485.72;5051142;28;20304;-62
2022/11/21 08:36:04;;;;;;;3.13;1.20;;;;;;;5.91;100.00;93475.94;5033221;28;20215;-62
2022/11/21 08:38:29;;;;;;;2.13;1.50;;;;;;;5.90;100.00;93476.03;5051144;28;20209;-57
2022/11/21 08:43:39;;;;;;;2.20;1.50;;;;;;;6.07;100.00;93489.72;5051323;28;20261;-62
2022/11/21 08:46:04;;;;;;;3.67;1.47;;;;;;;6.01;100.00;93497.81;5050918;28;20197;-62
2022/11/21 08:48:30;;;;;;;1.90;1.33;;;;;;;6.17;100.00;93482.97;5050733;28;20206;-65
2022/11/21 08:50:58;;;;;;;2.87;1.43;;;;;;;6.12;100.00;93506.06;5050814;28;20219;-63
2022/11/21 08:53:24;;;;;;;1.57;1.10;;;;;;;5.99;100.00;93504.72;5051158;28;20193;-63
2022/11/21 08:55:49;;;;;;;0.80;0.80;;;;;;;6.07;100.00;93489.72;5050844;28;20244;-62
2022/11/21 08:58:15;;;;;;;2.33;1.60;;;;;;;6.01;100.00;93490.25;5051032;28;20680;-63
2022/11/21 09:00:40;;;;;;;1.63;1.33;;;;;;;6.08;100.00;93493.84;5050821;28;20205;-63
2022/11/21 09:03:05;;;;;;;2.07;1.03;;;;;;;6.03;100.00;93501.00;5050563;28;20195;-63
2022/11/21 09:05:32;;;;;;;1.63;1.47;;;;;;;5.93;100.00;93488.41;5050617;28;20197;-65
2022/11/21 09:07:58;;;;;;;1.67;1.00;;;;;;;6.06;100.00;93499.00;5050897;28;20729;-58
2022/11/21 09:10:28;;;;;;;2.53;1.80;;;;;;;6.03;100.00;93496.78;5058143;22;20300;-64
2022/11/21 09:12:57;;;;;;;1.57;1.47;;;;;;;6.06;100.00;93508.34;5050701;28;20709;-58
2022/11/21 09:18:09;;;;;;;5.80;1.60;;;;;;;6.32;100.00;93512.69;5051048;28;20708;-62
2022/11/21 09:20:40;;;;;;;1.70;1.00;;;;;;;6.33;100.00;93509.25;5032586;28;20242;-61
2022/11/21 09:23:11;;;;;;;1.77;1.20;;;;;;;6.40;100.00;93500.22;5053861;28;20196;-58
2022/11/21 09:25:37;;;;;;;0.80;0.80;;;;;;;6.54;100.00;93511.66;5054195;28;20208;-63
2022/11/21 09:28:05;;;;;;;1.87;1.20;;;;;;;6.67;100.00;93507.09;5054174;28;20234;-62
2022/11/21 09:30:30;;;;;;;2.33;1.37;;;;;;;6.76;100.00;93503.78;5035942;28;20205;-63
2022/11/21 09:33:00;;;;;;;1.13;0.90;;;;;;;6.64;100.00;93522.53;5053934;28;20573;-62
2022/11/21 09:35:26;;;;;;;1.03;1.03;;;;;;;6.33;100.00;93519.34;5035978;28;20228;-62
2022/11/21 09:37:51;;;;;;;0.70;0.70;;;;;;;6.45;100.00;93525.06;5054050;28;20213;-62
2022/11/21 09:40:18;;;;;;;1.00;0.90;;;;;;;6.54;100.00;93521.75;5053691;28;20208;-63
2022/11/21 09:42:55;;;;;;;1.07;0.77;;;;;;;6.63;100.00;93510.84;5053633;28;20283;-62
2022/11/21 09:45:28;;;;;;;1.63;1.10;;;;;;;6.64;100.00;93514.97;5053831;28;20216;-61
2022/11/21 09:48:11;;;;;;;1.37;0.80;;;;;;;6.96;100.00;93517.16;5053516;28;20727;-62
2022/11/21 09:50:41;;;;;;;1.10;1.00;;;;;;;6.70;100.00;93519.47;5053468;28;20302;-62
2022/11/21 09:53:18;;;;;;;1.50;0.97;;;;;;;6.76;100.00;93536.63;5053772;28;20182;-62
2022/11/21 09:55:49;;;;;;;0.90;0.90;;;;;;;6.99;100.00;93547.22;5035331;28;20212;-59
2022/11/21 09:58:38;;;;;;;3.93;1.23;;;;;;;7.01;100.00;93550.41;5053318;28;20695;-64
2022/11/21 10:01:04;;;;;;;0.90;0.90;;;;;;;7.21;100.00;93567.13;5053563;28;20667;-63
2022/11/21 10:03:38;;;;;;;2.57;1.60;;;;;;;7.32;100.00;93564.41;5053410;28;20216;-62
2022/11/21 10:06:10;;;;;;;1.50;1.40;;;;;;;6.99;100.00;93580.06;5053534;28;20660;-59
2022/11/21 10:09:06;;;;;;;1.10;1.00;;;;;;;6.72;100.00;93586.59;5053332;28;20304;-58
2022/11/21 10:15:03;;;;;;;1.93;1.37;;;;;;;7.09;100.00;93566.47;5053296;28;20696;-66
2022/11/21 10:17:35;;;;;;;1.87;1.47;;;;;;;7.10;100.00;93565.53;5053125;28;20209;-61
2022/11/21 10:20:48;;;;;;;1.60;1.37;;;;;;;6.99;100.00;93563.16;5053146;28;20224;-63
2022/11/21 10:23:38;;;;;;;2.37;1.80;;;;;;;7.13;100.00;93536.69;5053321;28;20274;-59
2022/11/21 10:26:19;;;;;;;1.90;1.60;;;;;;;6.96;100.00;93544.94;5053329;28;20806;-63
2022/11/21 10:28:53;;;;;;;1.47;1.37;;;;;;;6.99;100.00;93558.09;5053236;28;20196;-66
2022/11/21 10:31:19;;;;;;;3.33;1.63;;;;;;;7.01;100.00;93558.00;5053338;28;20200;-62
2022/11/21 10:33:45;;;;;;;2.83;2.30;;;;;;;6.65;100.00;93577.94;5052363;28;20761;-57
2022/11/21 10:36:33;;;;;;;3.63;2.47;;;;;;;6.57;100.00;93554.28;5052977;28;20280;-63
2022/11/21 10:39:04;;;;;;;3.17;2.30;;;;;;;6.72;100.00;93546.19;5035822;28;20712;-63
2022/11/21 10:41:41;;;;;;;3.67;2.70;;;;;;;6.61;100.00;93553.91;5034737;28;20189;-62
2022/11/21 10:47:28;;;;;;;3.10;2.43;;;;;;;6.40;100.00;93542.34;5053215;28;20242;-64
2022/11/21 10:50:03;;;;;;;3.07;2.23;;;;;;;6.41;100.00;93552.31;5051823;28;20284;-61
2022/11/21 10:52:33;;;;;;;2.20;1.97;;;;;;;6.70;100.00;93548.06;5052576;28;20220;-59
2022/11/21 10:55:01;;;;;;;2.27;1.97;;;;;;;6.60;100.00;93562.41;5034788;28;20209;-59
2022/11/21 10:57:30;;;;;;;2.13;1.93;;;;;;;6.46;100.00;93555.25;5052911;28;20214;-66
2022/11/21 11:00:01;;;;;;;2.23;1.90;;;;;;;6.45;100.00;93550.31;5052545;28;20239;-63
2022/11/21 11:02:27;;;;;;;3.70;2.07;;;;;;;6.25;100.00;93557.06;5034633;28;20279;-63
2022/11/21 11:05:14;;;;;;;2.97;2.10;;;;;;;6.34;100.00;93561.31;5052154;28;20291;-61
2022/11/21 11:07:40;;;;;;;2.27;1.73;;;;;;;6.31;100.00;93571.69;5052404;28;20272;-67
2022/11/21 11:10:22;;;;;;;4.20;1.90;;;;;;;6.94;100.00;93549.34;5052393;28;20235;-61
2022/11/21 11:15:33;;;;;;;7.43;2.53;;;;;;;10.37;100.00;93550.94;5037417;28;20259;-64
2022/11/21 11:18:01;;;;;;;7.80;2.30;;;;;;;10.92;100.00;93558.78;5052154;28;20304;-60
2022/11/21 11:20:47;;;;;;;3.00;1.80;;;;;;;11.29;100.00;93563.38;5052069;28;20217;-62
2022/11/21 11:23:18;;;;;;;3.73;1.80;;;;;;;10.66;100.00;93647.06;5051394;28;20254;-61
2022/11/21 11:25:59;;;;;;;6.47;2.27;;;;;;;10.81;100.00;93655.69;5052018;28;20296;-62
2022/11/21 11:28:32;;;;;;;2.07;1.80;;;;;;;9.68;100.00;93717.78;5051829;28;20201;-64
2022/11/21 11:30:59;;;;;;;1.63;1.40;;;;;;;8.33;100.00;93616.63;5052077;28;20197;-64
2022/11/21 11:33:39;;;;;;;4.00;1.57;;;;;;;7.50;100.00;93552.66;5051681;28;20190;-63
2022/11/21 11:36:10;;;;;;;1.50;1.40;;;;;;;7.07;100.00;93530.44;5051925;28;20196;-63
2022/11/21 11:38:36;;;;;;;1.63;1.50;;;;;;;6.74;100.00;93534.22;5051519;28;20259;-63
2022/11/21 11:41:12;;;;;;;2.80;1.73;;;;;;;6.64;100.00;93537.69;5051797;28;20213;-63
2022/11/21 11:52:38;;;;;;;2.10;1.53;;;;;;;7.09;100.00;93568.22;5051441;28;20701;-62
2022/11/21 11:55:17;;;;;;;2.57;2.13;;;;;;;7.31;100.00;93552.72;5051342;28;20430;-63
2022/11/21 11:57:43;;;;;;;3.13;2.00;;;;;;;7.70;100.00;93566.81;5051196;28;20220;-63
2022/11/21 12:00:11;;;;;;;3.37;1.90;;;;;;;7.91;100.00;93543.81;5050969;28;20235;-63